Time;durP1;ratioP1;P1;durP2;ratioP2;P2;SDS_P1;SDS_P2;PMS_P1;PMS_P2;Temp;Humidity;BMP_temperature;BMP_pressure;BME280_temperature;BME280_humidity;BME280_pressure;Samples;Min_cycle;Max_cycle;Signal;HPM_P1;HPM_P2
2022/05/13 00:02:06;;;;;;;5.80;1.85;;;;;;;25.94;33.26;98709.84;4503792;31;20100;-86
2022/05/13 00:04:32;;;;;;;6.28;1.90;;;;;;;25.90;33.33;98703.94;4489593;31;20494;-85
2022/05/13 00:06:58;;;;;;;7.00;2.10;;;;;;;25.61;33.94;98703.84;4489580;31;20162;-85
2022/05/13 00:09:56;;;;;;;4.65;2.00;;;;;;;25.50;34.15;98708.66;4503895;31;20141;-86
2022/05/13 00:12:09;;;;;;;6.15;2.00;;;;;;;25.66;33.93;98710.38;4503512;31;20115;-86
2022/05/13 00:14:34;;;;;;;5.28;1.90;;;;;;;25.67;34.00;98705.81;4489195;31;20169;-86
2022/05/13 00:17:00;;;;;;;5.85;2.00;;;;;;;25.56;34.11;98712.50;4503499;31;20162;-86
2022/05/13 00:19:26;;;;;;;5.72;2.10;;;;;;;25.69;33.89;98720.81;4503487;31;20119;-86
2022/05/13 00:21:51;;;;;;;7.30;2.35;;;;;;;25.64;33.75;98712.41;4488991;31;20156;-86
2022/05/13 00:24:16;;;;;;;7.47;1.80;;;;;;;25.50;34.28;98715.94;4503507;31;20131;-86
2022/05/13 00:26:42;;;;;;;6.18;2.05;;;;;;;25.66;34.00;98718.47;4488614;31;20087;-86
2022/05/13 00:29:07;;;;;;;6.22;1.90;;;;;;;25.08;34.77;98719.91;4503391;31;20099;-86
2022/05/13 00:31:33;;;;;;;5.62;2.10;;;;;;;25.47;34.21;98717.12;4503294;31;20096;-86
2022/05/13 00:33:58;;;;;;;6.75;2.08;;;;;;;25.62;33.93;98717.16;4503467;31;20115;-86
2022/05/13 00:36:23;;;;;;;5.85;1.98;;;;;;;25.57;34.19;98726.81;4488719;31;20111;-86
2022/05/13 00:38:49;;;;;;;5.95;1.90;;;;;;;25.69;34.04;98718.13;4489297;31;20118;-86
2022/05/13 00:41:15;;;;;;;4.78;1.80;;;;;;;25.75;33.95;98713.00;4503365;31;20355;-86
2022/05/13 00:43:51;;;;;;;4.40;1.95;;;;;;;25.43;33.51;98712.28;4503230;31;20096;-86
2022/05/13 00:46:17;;;;;;;4.97;1.70;;;;;;;25.48;33.97;98709.88;4476242;31;20096;-86
2022/05/13 00:48:43;;;;;;;4.68;1.77;;;;;;;25.67;33.66;98711.22;4489225;31;20091;-86
2022/05/13 00:51:10;;;;;;;3.23;1.53;;;;;;;25.67;33.18;98711.22;4503646;31;20107;-86
2022/05/13 00:53:36;;;;;;;6.05;2.10;;;;;;;25.73;33.00;98712.34;4489162;31;20095;-86
2022/05/13 00:56:02;;;;;;;7.05;1.90;;;;;;;25.49;33.54;98716.94;4475860;31;20152;-85
2022/05/13 00:58:28;;;;;;;4.50;1.58;;;;;;;25.72;33.08;98721.47;4475679;31;20151;-85
2022/05/13 01:00:53;;;;;;;5.12;1.75;;;;;;;25.56;33.15;98720.59;4488766;31;20080;-85
2022/05/13 01:03:20;;;;;;;5.55;1.92;;;;;;;25.67;33.45;98724.69;4503266;31;20124;-85
2022/05/13 01:05:49;;;;;;;5.93;2.30;;;;;;;25.74;33.87;98720.25;4475845;31;20534;-85
2022/05/13 01:08:15;;;;;;;6.07;1.80;;;;;;;25.55;34.35;98713.50;4488971;31;20084;-85
2022/05/13 01:10:44;;;;;;;6.45;2.03;;;;;;;25.46;34.38;98704.66;4503305;31;20113;-85
2022/05/13 01:13:12;;;;;;;6.15;2.08;;;;;;;25.53;34.47;98703.94;4503102;31;20516;-85
2022/05/13 01:15:40;;;;;;;5.53;1.80;;;;;;;25.46;34.51;98701.12;4475788;31;20125;-86
2022/05/13 01:18:06;;;;;;;5.90;1.85;;;;;;;25.37;34.88;98702.22;4488728;31;20092;-84
2022/05/13 01:20:48;;;;;;;5.00;1.92;;;;;;;25.43;34.87;98706.88;4488723;31;20083;-84
2022/05/13 01:23:17;;;;;;;5.68;1.80;;;;;;;25.54;34.17;98701.06;4489310;31;20103;-83
2022/05/13 01:25:57;;;;;;;7.60;2.10;;;;;;;25.11;34.65;98700.66;4488759;31;20391;-84
2022/05/13 01:28:34;;;;;;;4.95;1.80;;;;;;;25.29;34.49;98689.63;4488896;31;20108;-84
2022/05/13 01:31:03;;;;;;;6.00;1.98;;;;;;;25.33;34.30;98685.56;4503248;31;20083;-83
2022/05/13 01:33:29;;;;;;;5.87;1.85;;;;;;;25.12;34.64;98696.97;4503074;31;20523;-86
2022/05/13 01:35:56;;;;;;;5.40;1.92;;;;;;;25.03;34.75;98700.72;4488707;31;20588;-85
2022/05/13 01:38:23;;;;;;;;;;;;;;;25.19;34.45;98699.78;4502018;31;20146;-86
2022/05/13 01:40:49;;;;;;;6.43;2.00;;;;;;;25.12;34.17;98696.97;4488747;31;20307;-85
2022/05/13 01:43:14;;;;;;;7.47;2.20;;;;;;;24.92;34.58;98692.03;4503033;31;20104;-87
2022/05/13 01:45:40;;;;;;;4.97;1.90;;;;;;;24.86;34.52;98695.47;4502881;31;20151;-85
2022/05/13 01:48:07;;;;;;;5.35;1.70;;;;;;;24.98;34.13;98695.06;4488705;31;20173;-86
2022/05/13 01:50:33;;;;;;;5.62;2.05;;;;;;;25.22;34.49;98700.28;4488953;31;20089;-86
2022/05/13 01:52:59;;;;;;;4.90;2.00;;;;;;;25.18;35.23;98698.13;4488595;31;20108;-86
2022/05/13 01:55:24;;;;;;;6.37;2.22;;;;;;;25.13;35.90;98701.34;4488543;31;20367;-85
2022/05/13 01:57:50;;;;;;;7.20;2.35;;;;;;;24.96;36.43;98694.41;4502825;31;20134;-86
2022/05/13 02:00:17;;;;;;;8.35;2.05;;;;;;;25.00;36.45;98693.84;4502812;31;20110;-85
2022/05/13 02:05:26;;;;;;;5.95;2.08;;;;;;;24.61;37.21;98710.06;4490730;31;20157;-85
2022/05/13 02:07:52;;;;;;;5.70;2.10;;;;;;;24.61;37.21;98707.34;4488470;31;20092;-86
2022/05/13 02:10:18;;;;;;;5.90;2.00;;;;;;;24.57;37.26;98704.22;4502926;31;20139;-85
2022/05/13 02:12:43;;;;;;;5.87;2.15;;;;;;;24.60;37.26;98686.84;4502758;31;20096;-86
2022/05/13 02:15:09;;;;;;;6.07;2.10;;;;;;;24.44;37.44;98693.94;4488503;31;20367;-87
2022/05/13 02:17:34;;;;;;;5.53;2.28;;;;;;;24.56;37.11;98689.03;4502552;31;20439;-87
2022/05/13 02:20:00;;;;;;;6.15;2.22;;;;;;;24.45;37.36;98687.53;4502587;31;20107;-87
2022/05/13 02:22:25;;;;;;;5.30;2.05;;;;;;;24.56;37.15;98688.22;4502594;31;20159;-86
2022/05/13 02:24:51;;;;;;;7.25;2.20;;;;;;;24.49;37.46;98691.59;4502718;31;20388;-87
2022/05/13 02:27:16;;;;;;;5.70;2.15;;;;;;;24.64;37.28;98685.47;4502570;31;20085;-86
2022/05/13 02:29:42;;;;;;;6.28;2.10;;;;;;;24.60;37.54;98692.22;4487979;31;20359;-88
2022/05/13 02:32:08;;;;;;;9.68;2.58;;;;;;;24.48;38.31;98678.28;4502525;31;20169;-87
2022/05/13 02:34:36;;;;;;;9.45;2.50;;;;;;;24.45;38.79;98676.78;4502435;31;20492;-87
2022/05/13 02:37:02;;;;;;;6.93;2.40;;;;;;;24.19;39.35;98677.06;4488188;31;20123;-85
2022/05/13 02:39:28;;;;;;;7.15;2.45;;;;;;;24.26;39.14;98679.88;4488050;31;20435;-86
2022/05/13 02:41:53;;;;;;;6.47;2.00;;;;;;;23.92;40.02;98686.38;4502255;31;20137;-86
2022/05/13 02:44:19;;;;;;;7.82;2.50;;;;;;;23.89;40.12;98689.41;4502436;31;20128;-85
2022/05/13 02:46:44;;;;;;;5.65;2.33;;;;;;;23.98;39.90;98684.88;4488073;31;20084;-86
2022/05/13 02:49:10;;;;;;;5.68;1.98;;;;;;;23.81;39.87;98684.06;4487469;31;20398;-85
2022/05/13 02:51:35;;;;;;;7.28;2.33;;;;;;;24.10;38.79;98678.91;4502237;31;20382;-85
2022/05/13 02:54:00;;;;;;;8.18;2.47;;;;;;;23.46;39.79;98675.31;4502246;31;20110;-85
2022/05/13 02:56:26;;;;;;;7.78;2.60;;;;;;;23.89;39.25;98681.34;4502169;31;20457;-84
2022/05/13 02:58:51;;;;;;;9.15;2.47;;;;;;;24.10;38.81;98692.38;4487799;31;20124;-84
2022/05/13 03:01:18;;;;;;;6.45;2.30;;;;;;;24.05;38.90;98685.84;4502055;31;20238;-84
2022/05/13 03:03:46;;;;;;;7.50;2.35;;;;;;;24.09;38.72;98698.78;4501905;31;20151;-84
2022/05/13 03:06:12;;;;;;;6.47;2.30;;;;;;;24.13;38.47;98696.59;4487750;31;20435;-84
2022/05/13 03:08:38;;;;;;;6.03;2.30;;;;;;;24.04;38.64;98705.69;4487594;31;20072;-84
2022/05/13 03:11:04;;;;;;;7.03;2.03;;;;;;;24.27;38.44;98706.63;4487693;31;20383;-86
2022/05/13 03:13:30;;;;;;;7.12;2.47;;;;;;;24.30;38.03;98716.22;4501913;31;20104;-84
2022/05/13 03:16:01;;;;;;;5.75;2.10;;;;;;;24.23;37.81;98716.06;4501881;31;20118;-84
2022/05/13 03:18:27;;;;;;;6.62;2.17;;;;;;;23.88;38.03;98725.41;4487649;31;20084;-85
2022/05/13 03:20:52;;;;;;;7.00;2.40;;;;;;;23.71;38.14;98733.44;4501817;31;20380;-85
2022/05/13 03:23:18;;;;;;;6.85;2.15;;;;;;;23.74;38.31;98729.59;4501969;31;20435;-86
2022/05/13 03:25:43;;;;;;;6.43;2.30;;;;;;;24.03;37.83;98725.53;4501641;31;20093;-85
2022/05/13 03:28:10;;;;;;;5.95;2.15;;;;;;;23.95;38.04;98731.75;4487642;31;20103;-86
2022/05/13 03:30:36;;;;;;;7.12;2.30;;;;;;;23.43;39.17;98729.41;4502082;31;20136;-85
2022/05/13 03:33:02;;;;;;;6.62;2.00;;;;;;;23.85;38.50;98739.19;4487315;31;20096;-84
2022/05/13 03:35:27;;;;;;;7.37;2.58;;;;;;;24.03;38.16;98736.28;4501571;31;20073;-85
2022/05/13 03:37:52;;;;;;;7.62;2.47;;;;;;;24.02;38.34;98737.31;4487048;31;20088;-85
2022/05/13 03:40:18;;;;;;;6.60;2.45;;;;;;;23.51;39.62;98721.37;4501540;31;20087;-85
2022/05/13 03:42:44;;;;;;;6.87;2.75;;;;;;;23.36;40.16;98724.72;4501583;31;20126;-84
2022/05/13 03:45:12;;;;;;;6.30;2.33;;;;;;;23.61;39.83;98727.41;4501446;31;20208;-85
2022/05/13 03:47:37;;;;;;;9.88;2.80;;;;;;;23.43;40.59;98724.03;4501513;31;20080;-85
2022/05/13 03:50:04;;;;;;;7.62;2.47;;;;;;;23.58;40.50;98735.81;4487000;31;20142;-84
2022/05/13 03:52:30;;;;;;;6.80;2.33;;;;;;;23.55;40.68;98744.22;4501508;31;20724;-85
2022/05/13 03:54:56;;;;;;;8.57;2.45;;;;;;;23.46;40.98;98745.22;4487232;31;20423;-85
2022/05/13 03:57:21;;;;;;;7.93;2.55;;;;;;;23.39;41.47;98754.97;4501145;31;20136;-84
2022/05/13 03:59:46;;;;;;;8.65;2.65;;;;;;;23.35;41.66;98747.25;4486972;31;20364;-84
2022/05/13 04:02:12;;;;;;;8.60;2.80;;;;;;;23.29;42.25;98752.44;4503227;31;20092;-84
2022/05/13 04:10:07;;;;;;;8.55;2.92;;;;;;;23.15;44.13;98751.25;4503741;31;20176;-81
2022/05/13 04:18:00;;;;;;;7.90;2.97;;;;;;;22.78;47.40;98763.19;4491345;31;20094;-81
2022/05/13 04:20:26;;;;;;;9.95;2.87;;;;;;;22.67;47.97;98768.84;4503464;31;20085;-83
2022/05/13 04:22:51;;;;;;;8.80;3.05;;;;;;;22.55;48.50;98755.72;4489201;31;20143;-82
2022/05/13 04:25:17;;;;;;;7.82;2.72;;;;;;;22.40;49.11;98753.81;4489216;31;20084;-82
2022/05/13 04:27:43;;;;;;;14.48;3.35;;;;;;;22.06;50.24;98754.56;4503467;31;20369;-82
2022/05/13 04:30:09;;;;;;;9.05;3.20;;;;;;;22.19;49.92;98746.94;4503498;31;20130;-82
2022/05/13 04:32:34;;;;;;;12.37;3.22;;;;;;;22.24;49.93;98752.69;4489092;31;20175;-82
2022/05/13 04:35:00;;;;;;;9.18;3.20;;;;;;;22.04;50.57;98756.56;4503403;31;20112;-82
2022/05/13 04:37:25;;;;;;;9.20;3.05;;;;;;;21.88;51.21;98760.00;4488877;31;20110;-81
2022/05/13 04:39:53;;;;;;;8.63;3.00;;;;;;;22.00;50.84;98769.47;4503437;31;20119;-81
2022/05/13 04:45:05;;;;;;;10.88;3.45;;;;;;;22.06;50.58;98767.97;4503458;31;20382;-80
2022/05/13 04:50:14;;;;;;;8.02;2.90;;;;;;;22.22;49.49;98761.91;4503387;31;20514;-82
2022/05/13 04:52:40;;;;;;;8.27;2.87;;;;;;;22.25;49.37;98761.59;4503407;31;20151;-81
2022/05/13 04:55:05;;;;;;;11.90;3.08;;;;;;;22.47;48.50;98774.47;4503272;31;20088;-81
2022/05/13 04:57:31;;;;;;;7.45;2.62;;;;;;;22.56;47.87;98772.66;4503134;31;20412;-81
2022/05/13 04:59:56;;;;;;;8.40;2.62;;;;;;;22.51;47.88;98764.25;4503324;31;20145;-83
2022/05/13 05:02:22;;;;;;;6.30;2.60;;;;;;;22.69;47.61;98777.59;4488832;31;20451;-83
2022/05/13 05:04:47;;;;;;;7.85;2.85;;;;;;;22.97;47.18;98775.53;4503187;31;20089;-83
2022/05/13 05:07:13;;;;;;;8.80;2.60;;;;;;;22.88;47.14;98779.19;4488846;31;20098;-81
2022/05/13 05:09:39;;;;;;;8.02;2.80;;;;;;;22.78;47.39;98784.69;4503110;31;20077;-81
2022/05/13 05:12:05;;;;;;;8.45;2.70;;;;;;;23.25;46.09;98794.91;4503102;31;20114;-82
2022/05/13 05:14:31;;;;;;;7.47;2.55;;;;;;;23.13;46.97;98798.94;4503201;31;20462;-82
2022/05/13 05:16:57;;;;;;;7.28;2.53;;;;;;;23.57;45.73;98793.31;4503241;31;20114;-83
2022/05/13 05:19:23;;;;;;;7.37;2.85;;;;;;;23.62;45.36;98793.62;4503220;31;20104;-83
2022/05/13 05:21:48;;;;;;;6.25;2.40;;;;;;;23.83;44.85;98800.41;4488795;31;20096;-82
2022/05/13 05:24:14;;;;;;;6.90;2.60;;;;;;;23.89;44.69;98802.41;4503018;31;20088;-82
2022/05/13 05:26:39;;;;;;;6.47;2.45;;;;;;;23.72;44.94;98818.53;4488776;31;20122;-82
2022/05/13 05:29:05;;;;;;;6.03;2.25;;;;;;;23.97;44.52;98810.50;4502816;31;20101;-82
2022/05/13 05:31:30;;;;;;;6.40;2.30;;;;;;;24.06;44.45;98814.00;4503134;31;20154;-82
2022/05/13 05:33:56;;;;;;;5.87;2.35;;;;;;;24.04;44.45;98816.88;4503000;31;20130;-81
2022/05/13 05:36:21;;;;;;;6.80;2.42;;;;;;;23.90;44.76;98820.25;4502775;31;20335;-81
2022/05/13 05:38:46;;;;;;;7.80;2.40;;;;;;;24.08;44.62;98812.81;4503020;31;20161;-82
2022/05/13 05:41:12;;;;;;;6.22;2.40;;;;;;;24.23;44.16;98810.28;4502921;31;20092;-81
2022/05/13 05:43:37;;;;;;;7.32;2.35;;;;;;;24.14;44.00;98808.59;4488428;31;20068;-82
2022/05/13 05:46:03;;;;;;;7.22;2.15;;;;;;;24.47;43.38;98812.09;4503149;31;20080;-82
2022/05/13 05:48:29;;;;;;;6.07;2.30;;;;;;;24.47;43.24;98816.62;4488460;31;20127;-81
2022/05/13 05:50:58;;;;;;;6.78;2.30;;;;;;;23.89;44.45;98826.63;4502910;31;20088;-81
2022/05/13 05:58:57;;;;;;;8.07;2.40;;;;;;;24.61;43.21;98818.66;4490791;31;20118;-80
2022/05/13 06:01:22;;;;;;;6.40;2.20;;;;;;;24.96;42.33;98824.59;4488676;31;20135;-83
2022/05/13 06:03:48;;;;;;;6.57;2.50;;;;;;;25.46;41.43;98825.19;4488504;31;20348;-81
2022/05/13 06:06:13;;;;;;;6.60;2.08;;;;;;;25.24;41.78;98837.63;4502698;31;20092;-81
2022/05/13 06:08:40;;;;;;;6.75;2.50;;;;;;;25.75;40.70;98839.81;4502672;31;20087;-82
2022/05/13 06:11:06;;;;;;;4.33;1.63;;;;;;;25.83;40.58;98847.88;4483614;31;20104;-82
2022/05/13 06:13:31;;;;;;;6.45;2.70;;;;;;;25.91;40.32;98847.84;4492158;31;20076;-78
2022/05/13 06:15:57;;;;;;;7.40;2.50;;;;;;;25.92;40.32;98854.91;4496649;31;20092;-83
2022/05/13 06:18:22;;;;;;;7.37;2.62;;;;;;;25.76;40.71;98860.41;4497801;31;20454;-87
2022/05/13 06:20:47;;;;;;;6.40;2.50;;;;;;;26.33;39.90;98849.16;4491786;31;20099;-94
2022/05/13 06:23:13;;;;;;;6.72;2.42;;;;;;;26.40;39.36;98857.34;4495867;31;20490;-87
2022/05/13 06:25:39;;;;;;;7.65;2.35;;;;;;;26.28;40.08;98857.78;4492132;31;20141;-87
2022/05/13 06:28:05;;;;;;;7.25;2.50;;;;;;;26.58;38.45;98855.16;4494900;31;20140;-80
2022/05/13 06:30:32;;;;;;;8.07;2.75;;;;;;;26.32;38.84;98846.62;4494287;31;20122;-81
2022/05/13 06:32:58;;;;;;;;;;;;;;;26.32;38.99;98849.34;4482761;31;20435;-79
2022/05/13 06:35:25;;;;;;;7.15;2.15;;;;;;;26.73;38.32;98847.06;4486020;31;19999;-79
2022/05/13 06:37:51;;;;;;;8.02;2.83;;;;;;;26.23;39.23;98843.16;4501151;31;20116;-80
2022/05/13 06:40:17;;;;;;;6.07;2.30;;;;;;;26.19;39.57;98841.84;4486213;31;20153;-80
2022/05/13 06:42:42;;;;;;;8.05;2.80;;;;;;;26.15;38.91;98849.47;4487280;31;20443;-80
2022/05/13 06:45:08;;;;;;;7.35;1.98;;;;;;;25.93;39.47;98853.06;4500782;31;20366;-80
2022/05/13 06:47:33;;;;;;;6.47;2.12;;;;;;;25.69;39.82;98842.22;4502075;31;20084;-80
2022/05/13 06:50:01;;;;;;;6.07;2.20;;;;;;;25.79;39.12;98850.09;4502416;31;20485;-80
2022/05/13 06:52:26;;;;;;;7.03;2.30;;;;;;;25.28;39.36;98847.88;4488064;31;20200;-80
2022/05/13 06:54:51;;;;;;;6.90;2.12;;;;;;;25.25;39.67;98850.94;4487979;31;20084;-80
2022/05/13 06:57:17;;;;;;;7.50;2.60;;;;;;;25.40;39.45;98850.16;4502061;31;20080;-80
2022/05/13 06:59:42;;;;;;;7.03;2.30;;;;;;;25.43;39.94;98849.81;4502066;31;20095;-80
2022/05/13 07:02:08;;;;;;;6.72;2.37;;;;;;;25.54;39.67;98849.41;4502126;31;20098;-80
2022/05/13 07:04:33;;;;;;;7.80;2.58;;;;;;;25.75;39.42;98858.69;4501933;31;20114;-80
2022/05/13 07:07:02;;;;;;;7.18;2.17;;;;;;;25.78;39.79;98853.78;4501933;31;20091;-80
2022/05/13 07:09:28;;;;;;;7.53;2.67;;;;;;;26.07;39.45;98861.19;4502056;31;20118;-80
2022/05/13 07:11:54;;;;;;;6.80;2.45;;;;;;;26.23;38.31;98864.75;4502003;31;20080;-80
2022/05/13 07:14:20;;;;;;;6.07;2.28;;;;;;;26.28;38.72;98859.66;4487690;31;20100;-80
2022/05/13 07:16:45;;;;;;;8.38;2.50;;;;;;;26.22;39.02;98853.13;4487541;31;20095;-80
2022/05/13 07:19:10;;;;;;;6.12;2.20;;;;;;;26.42;38.59;98852.59;4487472;31;20195;-79
2022/05/13 07:21:36;;;;;;;6.00;2.35;;;;;;;26.23;38.01;98853.97;4501964;31;20077;-80
2022/05/13 07:24:01;;;;;;;5.43;1.95;;;;;;;26.62;37.72;98852.97;4501775;31;20132;-80
2022/05/13 07:26:27;;;;;;;6.72;2.50;;;;;;;26.80;37.79;98841.78;4501797;31;20112;-80
2022/05/13 07:28:52;;;;;;;7.57;2.40;;;;;;;26.98;37.55;98835.97;4501793;31;20076;-80
2022/05/13 07:31:17;;;;;;;6.22;2.05;;;;;;;27.03;37.34;98841.66;4501569;31;20111;-80
2022/05/13 07:33:43;;;;;;;6.07;2.12;;;;;;;27.43;36.55;98842.19;4501746;31;20096;-80
2022/05/13 07:36:08;;;;;;;5.65;2.03;;;;;;;27.65;36.30;98837.63;4502409;31;20080;-80
2022/05/13 07:38:34;;;;;;;4.95;1.90;;;;;;;27.90;36.03;98845.38;4486891;32;20092;-80
2022/05/13 07:41:18;;;;;;;6.10;2.00;;;;;;;27.85;34.86;98835.94;4488176;31;20076;-80
2022/05/13 07:43:45;;;;;;;5.60;1.90;;;;;;;28.21;34.40;98837.72;4488286;31;20076;-80
2022/05/13 07:46:11;;;;;;;5.80;1.95;;;;;;;28.30;33.71;98829.44;4486841;32;20465;-80
2022/05/13 07:48:39;;;;;;;4.53;1.85;;;;;;;28.23;33.64;98834.84;4487071;32;20498;-80
2022/05/13 07:51:05;;;;;;;5.93;2.20;;;;;;;28.30;33.83;98840.28;4487254;32;20080;-80
2022/05/13 07:53:31;;;;;;;6.78;1.60;;;;;;;27.73;34.06;98844.78;4487004;32;20123;-80
2022/05/13 07:55:57;;;;;;;3.00;1.40;;;;;;;27.80;33.22;98838.38;4488240;31;20093;-80
2022/05/13 07:58:23;;;;;;;5.15;1.70;;;;;;;27.55;33.36;98856.03;4487026;32;20164;-80
2022/05/13 08:00:48;;;;;;;6.40;1.98;;;;;;;27.47;34.54;98848.88;4488187;31;20362;-80
2022/05/13 08:03:15;;;;;;;4.72;1.40;;;;;;;27.23;35.23;98861.66;4486861;32;20093;-80
2022/05/13 08:05:47;;;;;;;3.83;1.50;;;;;;;27.13;34.29;98854.88;4488144;31;20123;-80
2022/05/13 08:08:19;;;;;;;4.53;1.50;;;;;;;27.10;34.42;98858.81;4488023;31;20171;-80
2022/05/13 08:10:56;;;;;;;4.32;1.55;;;;;;;27.01;34.86;98859.94;4487931;31;20105;-80
2022/05/13 08:13:23;;;;;;;4.75;1.65;;;;;;;27.10;35.36;98861.53;4486655;32;20072;-80
2022/05/13 08:15:49;;;;;;;5.45;1.75;;;;;;;26.45;36.27;98873.84;4486678;32;20523;-80
2022/05/13 08:18:16;;;;;;;6.60;1.80;;;;;;;26.61;36.38;98876.41;4486626;32;20092;-80
2022/05/13 08:20:43;;;;;;;4.13;1.70;;;;;;;26.67;36.64;98877.53;4487868;31;20192;-80
2022/05/13 08:23:08;;;;;;;3.42;1.55;;;;;;;26.47;36.99;98875.34;4486588;32;20142;-80
2022/05/13 08:25:34;;;;;;;5.85;1.87;;;;;;;26.08;37.55;98880.94;4486646;32;20440;-80
2022/05/13 08:27:59;;;;;;;4.72;1.83;;;;;;;26.36;37.09;98885.75;4486777;32;20123;-80
2022/05/13 08:30:25;;;;;;;6.55;1.98;;;;;;;25.53;38.78;98888.19;4487731;31;20081;-80
2022/05/13 08:32:51;;;;;;;6.68;2.40;;;;;;;25.51;39.22;98891.06;4486550;32;20099;-79
2022/05/13 08:35:17;;;;;;;4.72;1.80;;;;;;;25.41;39.54;98898.53;4486427;32;20101;-80
2022/05/13 08:37:49;;;;;;;7.03;2.08;;;;;;;25.05;40.47;98888.22;4497619;31;20104;-80
2022/05/13 08:40:25;;;;;;;6.97;2.10;;;;;;;25.37;40.09;98881.03;4489119;31;20152;-80
2022/05/13 08:42:50;;;;;;;5.68;1.98;;;;;;;25.08;40.96;98878.94;4503502;31;20078;-80
2022/05/13 08:45:18;;;;;;;7.93;2.58;;;;;;;25.20;41.00;98885.63;4489160;31;20099;-80
2022/05/13 08:47:56;;;;;;;5.40;2.35;;;;;;;25.33;41.16;98884.28;4488649;31;20156;-80
2022/05/13 08:50:38;;;;;;;5.72;1.83;;;;;;;25.98;39.50;98881.19;4489107;31;20447;-80
2022/05/13 08:53:27;;;;;;;6.87;2.30;;;;;;;26.06;39.32;98885.69;4503340;31;20072;-80
2022/05/13 08:55:59;;;;;;;7.30;2.22;;;;;;;26.28;39.01;98879.41;4488866;31;20092;-80
2022/05/13 08:58:32;;;;;;;6.55;2.08;;;;;;;26.46;38.85;98876.38;4489012;31;20253;-80
2022/05/13 09:00:59;;;;;;;6.35;2.20;;;;;;;26.66;38.28;98879.41;4489015;31;20225;-80
2022/05/13 09:03:28;;;;;;;;;;;;;;;26.33;39.40;98875.31;4489288;31;20068;-80
2022/05/13 09:06:02;;;;;;;5.62;1.80;;;;;;;26.88;37.91;98874.94;4503287;31;19983;-80
2022/05/13 09:08:28;;;;;;;7.82;2.60;;;;;;;27.00;37.96;98872.59;4503494;31;20122;-80
2022/05/13 09:10:56;;;;;;;5.43;2.10;;;;;;;27.26;37.60;98868.59;4488973;31;20430;-80
2022/05/13 09:13:29;;;;;;;6.43;2.05;;;;;;;27.45;37.55;98865.28;4503281;31;20096;-80
2022/05/13 09:15:57;;;;;;;7.80;2.30;;;;;;;27.63;36.70;98870.28;4488932;31;20431;-80
2022/05/13 09:18:36;;;;;;;6.12;2.50;;;;;;;27.64;37.20;98869.25;4489115;31;20104;-80
2022/05/13 09:21:04;;;;;;;6.15;2.20;;;;;;;27.37;37.93;98862.72;4488856;31;20088;-80
2022/05/13 09:23:30;;;;;;;6.47;2.15;;;;;;;27.65;37.57;98859.25;4475677;31;20119;-80
2022/05/13 09:26:06;;;;;;;4.37;1.92;;;;;;;27.88;36.44;98858.25;4503112;31;20530;-80
2022/05/13 09:28:34;;;;;;;6.50;2.12;;;;;;;27.64;37.55;98863.84;4503085;31;20126;-80
2022/05/13 09:31:19;;;;;;;7.00;2.12;;;;;;;27.83;36.90;98861.53;4503174;31;20568;-80
2022/05/13 09:33:47;;;;;;;6.22;2.45;;;;;;;27.87;36.05;98857.37;4488702;31;20153;-80
2022/05/13 09:36:18;;;;;;;6.93;2.15;;;;;;;27.86;36.66;98866.56;4502889;31;20147;-80
2022/05/13 09:38:54;;;;;;;6.57;2.20;;;;;;;28.06;36.81;98863.22;4503101;31;20119;-80
2022/05/13 09:41:25;;;;;;;6.93;2.40;;;;;;;27.65;37.80;98870.09;4488978;31;20162;-79
2022/05/13 09:43:53;;;;;;;6.87;2.45;;;;;;;27.61;37.89;98868.81;4503086;31;20084;-79
2022/05/13 09:46:22;;;;;;;5.70;2.40;;;;;;;27.52;38.01;98869.94;4488633;31;20104;-80
2022/05/13 09:48:57;;;;;;;6.70;2.30;;;;;;;27.14;38.33;98870.06;4503002;31;20197;-80
2022/05/13 09:51:37;;;;;;;8.10;2.40;;;;;;;26.98;38.64;98880.06;4503097;31;20113;-80
2022/05/13 09:54:33;;;;;;;7.10;2.53;;;;;;;26.92;38.67;98882.69;4502946;31;20255;-80
2022/05/13 09:57:11;;;;;;;5.45;2.37;;;;;;;27.10;38.44;98872.34;4502841;31;20435;-80
2022/05/13 09:59:45;;;;;;;6.15;2.00;;;;;;;27.33;38.19;98872.22;4501932;31;20466;-80
2022/05/13 10:02:36;;;;;;;7.72;2.47;;;;;;;27.11;39.05;98873.16;4488617;31;20106;-80
2022/05/13 10:05:19;;;;;;;6.12;2.08;;;;;;;27.11;39.40;98871.28;4479326;31;20106;-80
2022/05/13 10:08:00;;;;;;;8.27;2.70;;;;;;;27.21;39.55;98861.00;4502871;31;20107;-80
2022/05/13 10:16:17;;;;;;;7.87;2.58;;;;;;;26.28;42.24;98874.00;4490460;31;20098;-80
2022/05/13 10:18:53;;;;;;;7.75;2.80;;;;;;;26.46;41.74;98865.56;4488337;31;20152;-80
2022/05/13 10:21:30;;;;;;;8.27;2.58;;;;;;;26.22;42.18;98868.50;4488421;31;20092;-80
2022/05/13 10:24:12;;;;;;;12.23;2.58;;;;;;;26.78;40.67;98863.56;4502824;31;20861;-80
2022/05/13 10:26:40;;;;;;;6.10;2.20;;;;;;;26.80;41.00;98864.22;4488273;31;20136;-80
2022/05/13 10:29:27;;;;;;;5.80;2.30;;;;;;;27.17;39.34;98854.31;4488325;31;20126;-80
2022/05/13 10:31:53;;;;;;;7.60;2.47;;;;;;;26.72;40.44;98861.62;4488206;31;20091;-80
2022/05/13 10:34:35;;;;;;;7.05;2.67;;;;;;;26.96;40.27;98855.06;4488207;31;20118;-80
2022/05/13 10:37:13;;;;;;;6.53;2.53;;;;;;;27.20;39.42;98850.41;4502369;31;20084;-79
2022/05/13 10:39:57;;;;;;;;;;;;;;;26.85;39.88;98848.28;4488554;31;20172;-80
2022/05/13 10:42:26;;;;;;;6.47;2.47;;;;;;;26.75;39.56;98871.22;4502887;31;19979;-80
2022/05/13 10:45:08;;;;;;;7.47;2.60;;;;;;;26.29;40.33;98864.87;4475187;31;20450;-80
2022/05/13 10:47:41;;;;;;;6.25;2.35;;;;;;;26.31;40.76;98859.31;4488135;31;20259;-79
2022/05/13 10:50:19;;;;;;;6.32;2.47;;;;;;;26.65;40.27;98853.41;4488056;31;20100;-80
2022/05/13 10:53:03;;;;;;;6.28;2.37;;;;;;;26.59;40.62;98854.16;4488008;31;20435;-79
2022/05/13 10:56:08;;;;;;;9.30;2.65;;;;;;;26.68;40.70;98846.81;4502412;31;20076;-80
2022/05/13 10:58:41;;;;;;;7.12;2.60;;;;;;;26.67;40.53;98858.63;4485743;31;20088;-79
2022/05/13 11:01:39;;;;;;;8.38;2.50;;;;;;;26.37;41.66;98855.88;4502209;31;20423;-79
2022/05/13 11:04:26;;;;;;;6.80;2.58;;;;;;;26.71;41.40;98843.72;4502234;31;20148;-80
2022/05/13 11:07:29;;;;;;;7.05;2.58;;;;;;;26.54;41.54;98848.44;4487768;31;20438;-80
2022/05/13 11:10:29;;;;;;;7.95;2.80;;;;;;;26.52;41.33;98853.19;4488408;31;20102;-80
2022/05/13 11:13:19;;;;;;;6.28;2.30;;;;;;;26.43;40.72;98846.19;4411066;32;20485;-79
2022/05/13 11:16:07;;;;;;;7.43;2.30;;;;;;;26.65;40.69;98848.00;4411173;32;20111;-79
2022/05/13 11:18:54;;;;;;;7.55;2.60;;;;;;;26.66;40.37;98849.69;4423799;32;20176;-79
2022/05/13 11:21:19;;;;;;;5.32;2.20;;;;;;;26.87;39.76;98838.12;4423919;32;20445;-80
2022/05/13 11:27:20;;;;;;;8.10;2.60;;;;;;;26.96;39.69;98832.63;4423915;32;20124;-80
2022/05/13 11:30:07;;;;;;;6.03;2.20;;;;;;;26.94;38.64;98826.56;4423850;32;20082;-80
2022/05/13 11:32:48;;;;;;;6.00;2.33;;;;;;;26.82;38.99;98831.59;4423804;32;20096;-80
2022/05/13 11:35:38;;;;;;;5.78;2.35;;;;;;;27.17;38.67;98823.72;4411073;32;20101;-79
2022/05/13 11:38:11;;;;;;;6.80;2.50;;;;;;;27.20;38.05;98824.19;4411342;32;20110;-80
2022/05/13 11:40:56;;;;;;;6.00;2.30;;;;;;;26.96;39.06;98819.94;4423930;32;20112;-79
2022/05/13 11:43:46;;;;;;;7.37;2.47;;;;;;;27.34;38.29;98833.31;4410919;32;20485;-80
2022/05/13 11:46:33;;;;;;;7.25;2.40;;;;;;;27.12;38.49;98831.56;4423680;32;20449;-80
2022/05/13 11:49:08;;;;;;;6.62;2.20;;;;;;;27.22;37.04;98830.25;4429089;31;20131;-80
2022/05/13 11:51:35;;;;;;;6.22;2.40;;;;;;;27.71;36.58;98819.78;4503852;31;20470;-79
2022/05/13 11:54:00;;;;;;;6.05;2.08;;;;;;;27.29;36.09;98827.63;4489465;31;20094;-80
2022/05/13 11:56:31;;;;;;;5.53;1.98;;;;;;;26.61;37.22;98830.47;4503720;31;20092;-80
2022/05/13 11:59:03;;;;;;;7.10;2.10;;;;;;;26.50;37.91;98833.59;4503870;31;20485;-80
2022/05/13 12:01:38;;;;;;;7.10;1.98;;;;;;;26.97;37.67;98827.03;4489502;31;20553;-80
2022/05/13 12:04:12;;;;;;;7.53;2.22;;;;;;;26.46;38.00;98827.75;4503564;31;20470;-80
2022/05/13 12:06:50;;;;;;;6.95;2.15;;;;;;;26.62;37.95;98824.06;4503689;31;20144;-80
2022/05/13 12:09:53;;;;;;;6.60;2.10;;;;;;;26.42;38.11;98826.44;4503770;31;20093;-80
2022/05/13 12:12:22;;;;;;;8.20;2.05;;;;;;;26.60;37.44;98828.81;4411137;32;20078;-79
2022/05/13 12:14:56;;;;;;;8.40;2.00;;;;;;;26.49;37.99;98838.19;4423504;32;20090;-79
2022/05/13 12:17:53;;;;;;;5.40;1.65;;;;;;;26.81;36.58;98829.91;4423305;32;20181;-80
2022/05/13 12:20:37;;;;;;;5.72;2.00;;;;;;;26.57;37.01;98828.31;4358260;32;20103;-80